Latest Weather Observations for Leinster

IDW60801

Issued at 9:43 am WST Tuesday 22 September 2020 (issued every 10 minutes, with the page automatically refreshed every 10 minutes)

About weather observations | Map of weather stations | Latest weather observations for WA | Other Formats
Station Details ID: 012314 Name: LEINSTER AERO Lat: -27.84 Lon: 120.70 Height: 497.0 m
Data from the previous 72 hours. | See also: Recent months at Leinster
Date/Time
WST
Temp
°C
App
Temp
°C
Dew
Point
°C
Rel
Hum
%
Delta-T
°C
Wind Press
QNH
hPa
Press
MSL
hPa
Rain since
9am
mm
Dir  Spd
km/h
Gust
km/h
Spd
kts
Gust
kts
22/09:30am 17.6 13.9 -0.2 30 7.8 ESE 9 19 5 10 1023.2 1021.7 0.0
22/09:00am 16.2 11.3 -0.5 32 7.2 SE 15 22 8 12 1023.2 1021.7 0.0
22/08:30am 15.4 10.6 0.0 35 6.7 ESE 15 20 8 11 1023.0 1021.5 0.0
22/08:00am 14.2 9.0 0.1 38 6.1 ESE 17 24 9 13 1023.0 1021.5 0.0
22/07:30am 12.8 8.3 -0.1 41 5.5 ESE 13 19 7 10 1022.7 1021.2 0.0
22/07:00am 10.2 6.4 -0.6 47 4.4 SSE 9 13 5 7 1022.3 1020.9 0.0
22/06:30am 7.5 5.3 -1.2 54 3.4 CALM 0 0 0 0 1022.1 1020.7 0.0
22/06:00am 6.1 3.8 -2.0 56 3.1 CALM 0 0 0 0 1021.7 1020.3 0.0
22/05:30am 6.1 3.8 -2.2 55 3.1 CALM 0 0 0 0 1021.4 1019.9 0.0
22/05:00am 6.3 4.0 -2.6 53 3.3 CALM 0 0 0 0 1021.2 1019.7 0.0
22/04:30am 6.5 4.2 -2.1 54 3.3 CALM 0 0 0 0 1020.8 1019.3 0.0
22/04:00am 6.9 4.6 -2.5 51 3.5 CALM 0 0 0 0 1020.6 1019.1 0.0
22/03:30am 7.0 3.5 -2.7 50 3.6 S 6 6 3 3 1020.5 1019.0 0.0
22/03:00am 7.5 5.2 -2.5 49 3.8 CALM 0 0 0 0 1020.5 1019.0 0.0
22/02:30am 7.3 4.1 -3.2 47 3.9 SSW 4 6 2 3 1020.6 1019.1 0.0
22/02:00am 7.8 5.4 -2.8 47 4.0 CALM 0 2 0 1 1020.6 1019.1 0.0
22/01:30am 10.7 7.1 -2.0 41 5.1 SSE 7 9 4 5 1020.5 1019.0 0.0
22/01:00am 11.5 7.2 -2.0 39 5.4 S 11 13 6 7 1020.2 1018.8 0.0
22/12:30am 11.7 7.0 -1.8 39 5.5 S 13 17 7 9 1020.2 1018.8 0.0
22/12:00am 11.1 7.1 -2.3 39 5.3 S 9 11 5 6 1020.2 1018.8 0.0
 
Date/Time
WST
Temp
°C
App
Temp
°C
Dew
Point
°C
Rel
Hum
%
Delta-T
°C
Wind Press
QNH
hPa
Press
MSL
hPa
Rain since
9am
mm
Dir  Spd
km/h
Gust
km/h
Spd
kts
Gust
kts
21/11:30pm 11.4 8.0 -2.0 39 5.4 SSW 6 7 3 4 1020.0 1018.6 0.0
21/11:00pm 11.3 7.9 -2.1 39 5.3 S 6 7 3 4 1019.7 1018.2 0.0
21/10:30pm 11.5 7.8 -2.7 37 5.6 SW 7 9 4 5 1019.9 1018.5 0.0
21/10:00pm 11.8 8.3 -2.8 36 5.8 SSW 6 7 3 4 1020.1 1018.7 0.0
21/09:30pm 13.0 9.3 -2.9 33 6.4 SSW 7 9 4 5 1020.4 1018.9 0.0
21/09:00pm 13.6 9.5 -3.2 31 6.7 SSW 9 9 5 5 1020.2 1018.8 0.0
21/08:30pm 14.8 11.1 -2.6 30 7.1 S 7 9 4 5 1020.0 1018.6 0.0
21/08:00pm 15.6 11.6 -2.3 29 7.4 SSE 9 11 5 6 1019.8 1018.4 0.0
21/07:30pm 16.6 11.9 -1.5 29 7.7 SSE 13 17 7 9 1019.6 1018.1 0.0
21/07:00pm 17.3 13.0 -1.4 28 8.0 S 11 13 6 7 1019.3 1017.8 0.0
21/06:30pm 17.8 12.8 -0.9 28 8.2 SSW 15 20 8 11 1019.1 1017.6 0.0
21/06:00pm 18.2 12.8 -1.1 27 8.4 SW 17 22 9 12 1018.8 1017.3 0.0
21/05:30pm 19.0 14.0 -1.4 25 8.9 SW 15 28 8 15 1018.5 1017.0 0.0
21/05:00pm 19.4 13.6 -1.7 24 9.2 SW 19 28 10 15 1018.4 1016.9 0.0
21/04:30pm 19.3 14.3 -1.2 25 9.0 WSW 15 22 8 12 1018.1 1016.7 0.0
21/04:00pm 19.3 13.9 -1.2 25 9.0 SSW 17 32 9 17 1017.8 1016.3 0.0
21/03:30pm 19.7 14.3 -1.4 24 9.3 SSW 17 26 9 14 1017.8 1016.3 0.0
21/03:00pm 19.4 13.7 -0.6 26 8.9 SSW 19 30 10 16 1017.8 1016.3 0.0
21/02:30pm 19.1 15.8 0.2 28 8.5 S 7 15 4 8 1017.7 1016.2 0.0
21/02:00pm 18.6 13.8 0.2 29 8.3 WSW 15 26 8 14 1017.8 1016.3 0.0
21/01:30pm 18.4 12.9 0.5 30 8.1 S 19 28 10 15 1018.1 1016.7 0.0
21/01:00pm 17.8 13.3 0.0 30 7.9 SW 13 24 7 13 1018.5 1017.0 0.0
21/12:30pm 17.6 12.9 1.2 33 7.5 SW 15 26 8 14 1019.0 1017.5 0.0
21/12:00pm 16.6 11.2 1.1 35 7.0 SW 19 32 10 17 1019.6 1018.1 0.0
21/11:30am 15.6 10.6 1.4 38 6.4 SSW 17 26 9 14 1019.9 1018.5 0.0
21/11:00am 15.6 10.5 1.0 37 6.5 SW 17 30 9 16 1020.4 1018.9 0.0
21/10:30am 13.9 8.9 1.2 42 5.6 S 17 28 9 15 1020.5 1019.0 0.0
21/10:00am 13.5 7.7 0.2 40 5.7 SSW 20 30 11 16 1020.9 1019.4 0.0
21/09:30am 12.7 7.3 1.1 45 5.1 SW 19 28 10 15 1021.0 1019.5 0.0
21/09:00am 12.1 6.6 1.7 49 4.6 SW 20 26 11 14 1021.1 1019.6 0.0
21/08:30am 11.2 5.7 2.0 53 4.0 S 20 28 11 15 1020.8 1019.3 0.0
21/08:00am 11.0 5.7 3.1 58 3.5 SSW 20 28 11 15 1020.7 1019.2 0.0
21/07:30am 10.2 5.6 3.5 63 3.0 SSW 17 26 9 14 1020.5 1019.0 0.0
21/07:00am 9.2 5.0 3.6 68 2.5 SW 15 20 8 11 1020.0 1018.6 0.0
21/06:30am 7.9 4.7 3.0 71 2.1 WSW 9 13 5 7 1019.8 1018.4 0.0
21/06:00am 7.5 4.2 2.6 71 2.1 WSW 9 13 5 7 1019.7 1018.2 0.0
21/05:30am 8.2 4.2 3.1 70 2.2 SSW 13 19 7 10 1019.4 1017.9 0.0
21/05:00am 8.6 4.6 2.8 67 2.5 SW 13 17 7 9 1019.1 1017.6 0.0
21/04:30am 9.1 4.4 2.9 65 2.7 S 17 20 9 11 1018.8 1017.3 0.0
21/04:00am 9.6 4.3 2.9 63 3.0 S 20 28 11 15 1018.7 1017.2 0.0
21/03:30am 9.6 5.2 2.7 62 3.0 S 15 22 8 12 1018.5 1017.0 0.0
21/03:00am 9.9 5.5 2.7 61 3.2 S 15 20 8 11 1018.4 1016.9 0.0
21/02:30am 10.3 5.9 2.7 59 3.4 S 15 20 8 11 1018.4 1016.9 0.0
21/02:00am 11.0 5.9 2.8 57 3.6 S 19 26 10 14 1018.3 1016.8 0.0
21/01:30am 11.3 6.5 2.6 55 3.9 S 17 24 9 13 1018.3 1016.8 0.0
21/01:00am 11.8 6.4 2.5 53 4.1 S 20 28 11 15 1018.4 1016.9 0.0
21/12:30am 12.3 6.5 2.5 51 4.4 S 22 32 12 17 1018.3 1016.8 0.0
21/12:00am 12.9 6.7 1.9 47 4.9 SSW 24 33 13 18 1018.1 1016.7 0.0
 
Date/Time
WST
Temp
°C
App
Temp
°C
Dew
Point
°C
Rel
Hum
%
Delta-T
°C
Wind Press
QNH
hPa
Press
MSL
hPa
Rain since
9am
mm
Dir  Spd
km/h
Gust
km/h
Spd
kts
Gust
kts
20/11:30pm 13.2 8.1 -1.9 35 6.2 SSW 15 22 8 12 1018.0 1016.6 0.0
20/11:00pm 13.8 8.3 -2.2 33 6.5 SW 17 24 9 13 1017.7 1016.2 0.0
20/10:30pm 14.3 8.4 -2.6 31 6.9 SW 19 28 10 15 1017.8 1016.3 0.0
20/10:00pm 14.6 8.6 -2.8 30 7.1 SW 19 28 10 15 1017.7 1016.2 0.0
20/09:30pm 13.9 9.4 -2.9 31 6.8 WSW 11 15 6 8 1017.7 1016.2 0.0
20/09:00pm 14.0 9.9 -3.3 30 6.9 WSW 9 11 5 6 1017.6 1016.1 0.0
20/08:30pm 15.0 10.5 -2.9 29 7.3 SW 11 13 6 7 1017.4 1015.9 0.0
20/08:00pm 15.6 11.2 -2.8 28 7.6 SW 11 15 6 8 1017.1 1015.6 0.0
20/07:30pm 16.5 11.3 -2.5 27 7.9 SW 15 20 8 11 1016.8 1015.3 0.0
20/07:00pm 16.9 10.8 -2.7 26 8.2 SW 20 30 11 16 1016.5 1015.0 0.0
20/06:30pm 17.4 10.5 -2.8 25 8.5 SW 24 33 13 18 1016.0 1014.5 0.0
20/06:00pm 17.8 10.8 -3.6 23 8.8 WSW 24 41 13 22 1015.7 1014.2 0.0
20/05:31pm 18.4 10.6 -3.7 22 9.2 WSW 28 46 15 25 1015.4 1013.9 0.0
20/05:30pm 18.4 11.0 -3.7 22 9.2 WSW 26 46 14 25 1015.4 1013.9 0.0
20/05:00pm 19.0 11.7 -3.2 22 9.4 WSW 26 37 14 20 1015.1 1013.6 0.0
20/04:30pm 19.1 10.6 -3.1 22 9.4 WSW 32 39 17 21 1014.9 1013.4 0.0
20/04:00pm 19.1 10.6 -3.7 21 9.5 WSW 32 46 17 25 1014.9 1013.4 0.0
20/03:30pm 19.5 10.9 -4.0 20 9.8 WSW 32 46 17 25 1014.7 1013.2 0.0
20/03:03pm 19.5 11.3 -4.0 20 9.8 WSW 30 48 16 26 1014.7 1013.2 0.0
20/03:00pm 19.3 11.1 -4.2 20 9.7 WSW 30 43 16 23 1014.7 1013.2 0.0
20/02:33pm 19.3 11.2 -3.5 21 9.6 WSW 30 48 16 26 1014.8 1013.3 0.0
20/02:30pm 19.5 11.0 -3.4 21 9.7 WSW 32 48 17 26 1014.6 1013.1 0.0
20/02:00pm 19.1 11.3 -3.7 21 9.5 WSW 28 46 15 25 1014.8 1013.3 0.0
20/01:50pm 18.9 11.2 -3.3 22 9.3 W 28 46 15 25 1014.9 1013.4 0.0
20/01:30pm 18.2 10.9 -3.2 23 9.0 W 26 44 14 24 1015.1 1013.6 0.0
20/01:17pm 18.4 10.0 -2.5 24 8.9 SW 32 50 17 27 1015.1 1013.6 0.0
20/01:00pm 17.9 10.7 -2.4 25 8.6 W 26 43 14 23 1015.4 1013.9 0.0
20/12:30pm 17.4 10.2 -2.3 26 8.3 WSW 26 39 14 21 1015.7 1014.2 0.0
20/12:00pm 16.2 9.0 -2.3 28 7.7 WSW 26 39 14 21 1016.2 1014.6 0.0
20/11:30am 16.0 8.9 -1.5 30 7.4 WSW 26 44 14 24 1016.7 1015.2 0.0
20/11:00am 15.6 8.9 -1.4 31 7.2 WSW 24 33 13 18 1017.0 1015.5 0.0
20/10:30am 14.1 6.3 -1.1 35 6.4 WSW 30 44 16 24 1017.2 1015.7 0.0
20/10:02am 14.0 6.6 -0.8 36 6.3 WSW 28 46 15 25 1017.4 1015.9 0.0
20/10:00am 13.8 6.0 -1.0 36 6.2 WSW 30 46 16 25 1017.4 1015.9 0.0
20/09:30am 13.3 6.3 -0.7 38 5.9 WSW 26 39 14 21 1017.6 1016.1 0.0
20/09:00am 13.0 5.3 -0.3 40 5.6 WSW 30 43 16 23 1017.7 1016.2 0.0
20/08:30am 11.9 4.3 0.4 45 4.9 WSW 30 43 16 23 1017.6 1016.1 0.0
20/08:00am 11.0 4.0 1.8 53 4.0 SW 28 39 15 21 1017.4 1015.9 0.0
20/07:30am 10.7 3.6 1.5 53 4.0 SW 28 37 15 20 1016.9 1015.4 0.0
20/07:00am 10.2 4.4 2.1 57 3.5 SW 22 32 12 17 1016.5 1015.0 0.0
20/06:30am 9.5 3.2 1.7 58 3.3 SW 24 33 13 18 1015.9 1014.4 0.0
20/06:00am 9.4 3.4 1.3 57 3.4 SW 22 32 12 17 1015.5 1014.0 0.0
20/05:30am 9.5 3.6 1.7 58 3.3 SW 22 33 12 18 1015.0 1013.5 0.0
20/05:00am 9.9 3.7 2.3 59 3.3 SW 24 32 13 17 1014.6 1013.1 0.0
20/04:30am 10.3 3.7 2.2 57 3.5 SW 26 35 14 19 1014.4 1012.8 0.0
20/04:00am 10.7 4.3 3.0 59 3.4 SW 26 37 14 20 1014.0 1012.4 0.0
20/03:30am 11.0 4.6 3.1 58 3.5 SW 26 37 14 20 1013.5 1012.0 0.0
20/03:00am 11.5 5.7 2.3 53 4.1 WSW 22 30 12 16 1013.3 1011.8 0.0
20/02:30am 12.0 5.1 2.5 52 4.2 SW 28 35 15 19 1013.2 1011.7 0.0
20/02:00am 12.5 6.6 1.5 47 4.8 WSW 22 33 12 18 1013.1 1011.6 0.0
20/01:30am 12.9 6.1 1.0 44 5.2 WSW 26 35 14 19 1013.0 1011.5 0.0
20/01:00am 13.6 6.9 1.6 44 5.3 WSW 26 35 14 19 1013.1 1011.6 0.0
20/12:30am 14.3 7.3 2.2 44 5.5 WSW 28 43 15 23 1013.2 1011.7 0.0
20/12:05am 14.8 7.1 2.4 43 5.7 WSW 32 50 17 27 1013.0 1011.5 0.0
20/12:00am 14.8 6.9 2.4 43 5.7 WSW 33 48 18 26 1013.0 1011.5 0.0
 
Date/Time
WST
Temp
°C
App
Temp
°C
Dew
Point
°C
Rel
Hum
%
Delta-T
°C
Wind Press
QNH
hPa
Press
MSL
hPa
Rain since
9am
mm
Dir  Spd
km/h
Gust
km/h
Spd
kts
Gust
kts
19/11:30pm 15.4 7.6 2.6 42 5.9 WSW 33 50 18 27 1012.8 1011.3 0.0
19/11:16pm 15.7 8.8 2.8 42 6.0 WSW 28 50 15 27 1012.8 1011.3 0.0
19/11:00pm 16.3 9.2 3.7 43 6.0 WSW 30 46 16 25 1012.6 1011.0 0.0
19/10:30pm 17.2 10.6 6.1 48 5.6 WSW 30 44 16 24 1012.2 1010.6 0.0
19/10:00pm 17.8 11.0 6.7 48 5.7 WSW 32 46 17 25 1012.0 1010.4 0.0
19/09:30pm 18.4 11.9 8.1 51 5.4 WSW 32 50 17 27 1011.6 1010.1 0.0
19/09:20pm 18.6 11.9 8.3 51 5.4 WSW 33 52 18 28 1011.5 1010.0 0.0
19/09:00pm 19.2 12.3 8.8 51 5.6 SW 35 48 19 26 1011.2 1009.7 0.0
19/08:30pm 21.1 14.4 7.3 41 7.3 WSW 32 46 17 25 1010.5 1008.9 0.0
19/08:00pm 22.0 16.2 4.6 32 8.8 W 24 37 13 20 1010.0 1008.4 0.0
19/07:30pm 22.4 17.4 4.5 31 9.0 WSW 20 28 11 15 1009.5 1008.0 0.0
19/07:00pm 22.9 17.2 4.9 31 9.2 WSW 24 32 13 17 1008.9 1007.3 0.0
19/06:30pm 23.3 17.8 3.8 28 9.8 W 22 32 12 17 1008.4 1006.8 0.0
19/06:00pm 23.7 17.9 2.5 25 10.4 W 22 33 12 18 1008.0 1006.4 0.0
19/05:30pm 24.5 17.8 1.4 22 11.1 W 26 35 14 19 1007.9 1006.3 0.0
19/05:00pm 25.2 18.3 -2.4 16 12.5 W 24 43 13 23 1007.7 1006.1 0.0
19/04:43pm 25.7 17.4 -4.7 13 13.2 W 30 48 16 26 1007.6 1006.0 0.0
19/04:30pm 25.6 16.7 -4.8 13 13.2 W 33 44 18 24 1007.4 1005.9 0.0
19/04:02pm 25.9 17.9 -5.6 12 13.5 W 28 46 15 25 1007.2 1005.6 0.0
19/04:00pm 26.0 17.6 -5.6 12 13.6 W 30 46 16 25 1007.2 1005.6 0.0
19/03:32pm 26.8 17.9 -7.3 10 14.3 W 32 50 17 27 1007.2 1005.6 0.0
19/03:30pm 25.9 16.8 -6.8 11 13.7 W 33 50 18 27 1007.2 1005.6 0.0
19/03:03pm 26.6 17.0 -8.8 9 14.4 W 35 56 19 30 1007.1 1005.5 0.0
19/03:00pm 26.6 17.0 -8.8 9 14.5 W 35 50 19 27 1007.1 1005.5 0.0
19/02:30pm 26.4 17.4 -6.4 11 13.9 W 33 54 18 29 1007.2 1005.6 0.0
19/02:06pm 26.8 18.0 -6.1 11 14.1 W 32 50 17 27 1007.3 1005.7 0.0
19/02:00pm 26.3 17.3 -6.5 11 13.9 W 33 50 18 27 1007.3 1005.7 0.0
19/01:53pm 27.5 19.0 -6.8 10 14.6 W 30 48 16 26 1007.3 1005.7 0.0
19/01:44pm 26.2 16.7 -7.8 10 14.0 W 35 52 19 28 1007.6 1006.0 0.0
19/01:37pm 26.6 17.9 -8.8 9 14.4 W 30 52 16 28 1007.4 1005.9 0.0
19/01:30pm 26.2 17.2 -7.8 10 14.0 WSW 32 46 17 25 1007.4 1005.9 0.0
19/01:05pm 26.7 18.5 -7.4 10 14.2 WSW 28 48 15 26 1007.6 1006.0 0.0
19/01:00pm 26.8 18.3 -7.3 10 14.3 W 30 46 16 25 1007.7 1006.1 0.0
19/12:30pm 26.1 16.6 -7.9 10 14.0 WNW 35 57 19 31 1008.0 1006.4 0.0
19/12:06pm 26.4 18.4 -5.3 12 13.7 WNW 28 46 15 25 1008.0 1006.4 0.0
19/12:00pm 26.0 17.6 -5.6 12 13.6 WNW 30 46 16 25 1008.1 1006.5 0.0
19/11:30am 25.7 17.4 -4.7 13 13.2 W 30 46 16 25 1008.3 1006.7 0.0
19/11:00am 25.3 17.5 -7.2 11 13.5 W 26 43 14 23 1008.5 1006.9 0.0
19/10:30am 24.0 16.0 -6.1 13 12.6 W 28 37 15 20 1008.7 1007.1 0.0
19/10:00am 23.6 15.6 -5.4 14 12.3 WNW 28 39 15 21 1009.0 1007.4 0.0

Other formats

Comma delimited format used in spreadsheet applications
http://www.bom.gov.au/fwo/IDW60801/IDW60801.95448.axf

JavaScript Object Notation format (JSON) in row-major order
http://www.bom.gov.au/fwo/IDW60801/IDW60801.95448.json

Data quality

Most of these data are generated automatically and are frequently updated. Quality checks on data are not normally performed. It is possible for incorrect values to appear. Refer to information at About Latest Weather Observations and please check the disclaimer before using these data.